createdAt,value
2023-03-26T00:02:24.622Z,97483.03
2023-03-26T00:04:53.335Z,97472.28
2023-03-26T00:07:21.299Z,97475.41
2023-03-26T00:09:49.384Z,97467.47
2023-03-26T00:12:18.810Z,97471.97
2023-03-26T00:14:46.897Z,97466.69
2023-03-26T00:17:16.227Z,97460.63
2023-03-26T00:19:44.524Z,97466.19
2023-03-26T00:22:13.689Z,97468.06
2023-03-26T00:24:46.003Z,97471.28
2023-03-26T00:27:14.707Z,97490.13
2023-03-26T00:29:42.674Z,97485.91
2023-03-26T00:32:10.648Z,97475.13
2023-03-26T00:34:41.487Z,97471.19
2023-03-26T00:37:09.474Z,97472.00
2023-03-26T00:39:37.541Z,97473.56
2023-03-26T00:42:08.347Z,97464.25
2023-03-26T00:44:36.371Z,97464.75
2023-03-26T00:47:04.338Z,97463.66
2023-03-26T00:49:32.317Z,97463.09
2023-03-26T00:52:03.352Z,97451.13
2023-03-26T00:54:31.457Z,97441.53
2023-03-26T00:56:59.479Z,97446.50
2023-03-26T00:59:30.587Z,97438.88
2023-03-26T01:01:58.667Z,97440.44
2023-03-26T01:04:30.989Z,97437.00
2023-03-26T01:07:02.940Z,97437.50
2023-03-26T01:09:33.835Z,97432.72
2023-03-26T01:12:02.869Z,97442.22
2023-03-26T01:14:31.035Z,97428.69
2023-03-26T01:16:59.997Z,97431.34
2023-03-26T01:19:30.557Z,97440.34
2023-03-26T01:21:59.371Z,97440.66
2023-03-26T01:24:28.781Z,97448.84
2023-03-26T01:27:06.089Z,97441.53
2023-03-26T01:29:39.519Z,97443.38
2023-03-26T01:32:15.609Z,97438.09
2023-03-26T01:34:50.883Z,97436.50
2023-03-26T01:37:22.267Z,97433.88
2023-03-26T01:39:57.086Z,97437.31
2023-03-26T01:42:34.572Z,97431.81
2023-03-26T01:45:04.906Z,97434.75
2023-03-26T01:47:33.510Z,97432.91
2023-03-26T01:50:01.438Z,97417.06
2023-03-26T01:52:31.722Z,97423.41
2023-03-26T01:55:01.329Z,97412.03
2023-03-26T01:57:34.982Z,97411.28
2023-03-26T02:00:11.752Z,97411.75
2023-03-26T02:02:46.458Z,97405.66
2023-03-26T02:05:17.041Z,97409.13
2023-03-26T02:07:47.964Z,97404.09
2023-03-26T02:10:18.946Z,97396.97
2023-03-26T02:12:47.008Z,97394.31
2023-03-26T02:15:15.015Z,97386.41
2023-03-26T02:17:43.258Z,97386.41
2023-03-26T02:20:12.783Z,97395.41
2023-03-26T02:22:42.091Z,97396.47
2023-03-26T02:25:10.946Z,97395.50
2023-03-26T02:27:40.683Z,97400.28
2023-03-26T02:30:11.172Z,97408.03
2023-03-26T02:32:40.240Z,97398.25
2023-03-26T02:35:08.773Z,97398.25
2023-03-26T02:37:36.781Z,97393.44
2023-03-26T02:40:06.274Z,97397.66
2023-03-26T02:42:34.157Z,97390.53
2023-03-26T02:45:03.425Z,97389.72
2023-03-26T02:47:31.536Z,97393.44
2023-03-26T02:49:59.491Z,97389.22
2023-03-26T02:52:27.500Z,97381.91
2023-03-26T02:54:55.613Z,97379.53
2023-03-26T02:57:23.922Z,97380.34
2023-03-26T02:59:52.983Z,97379.28
2023-03-26T03:02:24.530Z,97381.91
2023-03-26T03:04:52.981Z,97382.09
2023-03-26T03:07:22.879Z,97377.56
2023-03-26T03:09:50.986Z,97375.16
2023-03-26T03:12:19.096Z,97369.53
2023-03-26T03:14:47.057Z,97374.25
2023-03-26T03:17:15.062Z,97366.00
2023-03-26T03:19:44.479Z,97358.38
2023-03-26T03:22:12.532Z,97364.63
2023-03-26T03:24:43.936Z,97367.75
2023-03-26T03:27:12.941Z,97362.19
2023-03-26T03:29:41.497Z,97355.00
2023-03-26T03:32:09.477Z,97359.22
2023-03-26T03:34:38.725Z,97350.22
2023-03-26T03:37:08.131Z,97346.50
2023-03-26T03:39:36.202Z,97343.75
2023-03-26T03:42:04.256Z,97347.34
2023-03-26T03:44:32.295Z,97334.34
2023-03-26T03:47:00.174Z,97333.22
2023-03-26T03:49:28.146Z,97331.56
2023-03-26T03:51:56.073Z,97325.50
2023-03-26T03:54:25.990Z,97324.59
2023-03-26T03:56:54.189Z,97327.72
2023-03-26T03:59:22.208Z,97333.00
2023-03-26T04:01:50.974Z,97332.41
2023-03-26T04:04:19.096Z,97334.91
2023-03-26T04:06:47.215Z,97337.75
2023-03-26T04:09:15.110Z,97330.28
2023-03-26T04:11:44.471Z,97319.09
2023-03-26T04:14:12.443Z,97317.09
2023-03-26T04:16:40.586Z,97315.75
2023-03-26T04:19:08.629Z,97314.94
2023-03-26T04:21:38.172Z,97305.81
2023-03-26T04:24:07.319Z,97309.88
2023-03-26T04:26:35.657Z,97304.88
2023-03-26T04:29:07.196Z,97308.34
2023-03-26T04:31:36.412Z,97297.03
2023-03-26T04:34:07.574Z,97300.31
2023-03-26T04:36:35.893Z,97292.06
2023-03-26T04:39:05.455Z,97288.94
2023-03-26T04:41:33.417Z,97292.06
2023-03-26T04:44:02.183Z,97286.03
2023-03-26T04:46:33.793Z,97287.91
2023-03-26T04:49:02.523Z,97282.47
2023-03-26T04:51:38.475Z,97278.91
2023-03-26T04:54:07.551Z,97270.19
2023-03-26T04:56:40.662Z,97272.09
2023-03-26T04:59:13.751Z,97268.97
2023-03-26T05:01:46.089Z,97275.38
2023-03-26T05:04:14.526Z,97273.16
2023-03-26T05:06:43.236Z,97274.13
2023-03-26T05:09:11.664Z,97265.25
2023-03-26T05:11:39.725Z,97271.94
2023-03-26T05:14:08.389Z,97264.47
2023-03-26T05:16:37.733Z,97270.56
2023-03-26T05:19:07.194Z,97274.28
2023-03-26T05:21:35.443Z,97269.78
2023-03-26T05:24:03.636Z,97277.13
2023-03-26T05:26:31.740Z,97274.16
2023-03-26T05:28:59.796Z,97274.75
2023-03-26T05:31:28.299Z,97277.88
2023-03-26T05:33:57.059Z,97279.59
2023-03-26T05:36:28.461Z,97276.66
2023-03-26T05:38:56.686Z,97276.66
2023-03-26T05:41:24.796Z,97274.78
2023-03-26T05:43:52.794Z,97271.50
2023-03-26T05:46:23.486Z,97270.09
2023-03-26T05:48:52.186Z,97267.91
2023-03-26T05:51:20.234Z,97263.84
2023-03-26T05:53:49.811Z,97270.38
2023-03-26T05:56:17.786Z,97266.16
2023-03-26T05:58:45.953Z,97255.75
2023-03-26T06:01:17.224Z,97249.97
2023-03-26T06:03:46.159Z,97248.25
2023-03-26T06:06:16.511Z,97249.19
2023-03-26T06:08:46.845Z,97247.31
2023-03-26T06:11:16.576Z,97238.44
2023-03-26T06:13:44.902Z,97237.63
2023-03-26T06:16:27.269Z,97235.16
2023-03-26T06:18:57.389Z,97231.41
2023-03-26T06:21:25.749Z,97218.13
2023-03-26T06:23:53.754Z,97222.81
2023-03-26T06:26:23.278Z,97218.91
2023-03-26T06:28:51.341Z,97218.44
2023-03-26T06:31:19.653Z,97222.94
2023-03-26T06:33:48.938Z,97214.06
2023-03-26T06:36:16.884Z,97204.25
2023-03-26T06:38:44.796Z,97195.81
2023-03-26T06:41:12.809Z,97198.50
2023-03-26T06:43:42.110Z,97199.59
2023-03-26T06:46:10.480Z,97192.25
2023-03-26T06:48:38.612Z,97195.53
2023-03-26T06:51:07.132Z,97198.66
2023-03-26T06:53:35.130Z,97200.97
2023-03-26T06:56:03.440Z,97196.00
2023-03-26T06:58:31.449Z,97189.13
2023-03-26T07:01:00.837Z,97183.38
2023-03-26T07:03:29.707Z,97173.69
2023-03-26T07:05:57.635Z,97174.16
2023-03-26T07:08:26.500Z,97175.41
2023-03-26T07:10:54.717Z,97174.66
2023-03-26T07:13:23.311Z,97158.59
2023-03-26T07:15:51.250Z,97154.69
2023-03-26T07:18:20.606Z,97150.94
2023-03-26T07:20:48.863Z,97144.06
2023-03-26T07:23:20.309Z,97138.63
2023-03-26T07:25:49.884Z,97136.91
2023-03-26T07:28:24.500Z,97133.47
2023-03-26T07:30:58.103Z,97132.53
2023-03-26T07:33:30.707Z,97136.75
2023-03-26T07:36:04.725Z,97131.28
2023-03-26T07:38:38.422Z,97132.09
2023-03-26T07:41:10.080Z,97140.66
2023-03-26T07:43:55.746Z,97129.25
2023-03-26T07:46:28.898Z,97124.28
2023-03-26T07:49:01.907Z,97112.13
2023-03-26T07:51:30.226Z,97118.50
2023-03-26T07:54:00.726Z,97117.28
2023-03-26T07:56:34.490Z,97118.50
2023-03-26T07:59:07.950Z,97121.63
2023-03-26T08:01:46.785Z,97128.50
2023-03-26T08:04:32.789Z,97126.31
2023-03-26T08:07:06.491Z,97118.19
2023-03-26T08:09:36.764Z,97113.22
2023-03-26T08:12:10.202Z,97113.38
2023-03-26T08:14:45.626Z,97108.09
2023-03-26T08:17:16.338Z,97094.38
2023-03-26T08:20:00.010Z,97092.19
2023-03-26T08:22:31.693Z,97103.56
2023-03-26T08:25:05.764Z,97106.81
2023-03-26T08:27:38.772Z,97097.97
2023-03-26T08:30:10.368Z,97090.47
2023-03-26T08:32:38.631Z,97094.38
2023-03-26T08:35:07.362Z,97082.06
2023-03-26T08:37:36.863Z,97089.06
2023-03-26T08:40:04.918Z,97086.56
2023-03-26T08:43:00.055Z,97081.25
2023-03-26T08:45:39.481Z,97073.16
2023-03-26T08:48:40.640Z,97070.66
2023-03-26T08:51:23.562Z,97073.44
2023-03-26T08:54:03.448Z,97070.94
2023-03-26T08:56:36.439Z,97065.00
2023-03-26T08:59:21.529Z,97055.69
2023-03-26T09:02:10.587Z,97051.94
2023-03-26T09:04:56.430Z,97052.88
2023-03-26T09:07:39.095Z,97050.72
2023-03-26T09:10:21.529Z,97051.03
2023-03-26T09:12:50.985Z,97058.66
2023-03-26T09:15:31.726Z,97056.78
2023-03-26T09:18:19.499Z,97047.44
2023-03-26T09:21:09.088Z,97049.47
2023-03-26T09:23:55.032Z,97047.75
2023-03-26T09:26:28.515Z,97046.34
2023-03-26T09:29:20.703Z,97042.13
2023-03-26T09:32:05.019Z,97035.16
2023-03-26T09:34:34.761Z,97036.38
2023-03-26T09:37:20.540Z,97040.13
2023-03-26T09:39:54.703Z,97024.09
2023-03-26T09:42:33.093Z,97017.06
2023-03-26T09:45:22.787Z,97014.59
2023-03-26T09:48:08.947Z,97017.06
2023-03-26T09:50:41.530Z,97014.59
2023-03-26T09:53:30.567Z,97009.94
2023-03-26T09:56:04.810Z,97006.19
2023-03-26T09:58:51.747Z,97005.72
2023-03-26T10:01:25.397Z,97010.69
2023-03-26T10:03:59.462Z,97013.63
2023-03-26T10:06:42.738Z,97018.75
2023-03-26T10:09:23.993Z,97003.66
2023-03-26T10:12:00.219Z,97009.25
2023-03-26T10:14:33.908Z,96994.34
2023-03-26T10:17:06.740Z,97006.94
2023-03-26T10:19:44.589Z,97003.38
2023-03-26T10:22:21.746Z,96997.59
2023-03-26T10:25:02.924Z,97003.84
2023-03-26T10:27:40.618Z,96998.38
2023-03-26T10:30:23.929Z,96996.34
2023-03-26T10:32:59.193Z,96992.63
2023-03-26T10:35:32.805Z,96997.78
2023-03-26T10:38:10.317Z,96994.81
2023-03-26T10:40:43.846Z,96989.06
2023-03-26T10:43:29.606Z,96987.19
2023-03-26T10:46:11.255Z,96986.25
2023-03-26T10:48:47.838Z,96988.28
2023-03-26T10:51:25.175Z,96986.25
2023-03-26T10:53:55.022Z,96976.47
2023-03-26T10:56:24.713Z,96981.91
2023-03-26T10:58:52.762Z,96976.47
2023-03-26T11:01:25.760Z,96975.81
2023-03-26T11:03:55.041Z,96976.59
2023-03-26T11:06:31.395Z,96974.72
2023-03-26T11:09:04.603Z,96973.94
2023-03-26T11:11:38.755Z,96973.94
2023-03-26T11:14:16.844Z,96981.28
2023-03-26T11:16:56.286Z,96966.94
2023-03-26T11:19:28.802Z,96969.75
2023-03-26T11:22:01.934Z,96968.66
2023-03-26T11:24:44.632Z,96965.88
2023-03-26T11:27:20.929Z,96968.81
2023-03-26T11:29:54.635Z,96967.25
2023-03-26T11:32:25.857Z,96967.25
2023-03-26T11:34:59.460Z,96965.69
2023-03-26T11:37:30.783Z,96970.53
2023-03-26T11:40:00.021Z,96968.81
2023-03-26T11:42:30.001Z,96967.56
2023-03-26T11:45:00.817Z,96976.91
2023-03-26T11:47:33.403Z,96974.75
2023-03-26T11:50:02.949Z,96967.25
2023-03-26T11:52:31.304Z,96962.59
2023-03-26T11:54:59.547Z,96970.34
2023-03-26T11:57:29.586Z,96962.41
2023-03-26T12:00:03.764Z,96964.16
2023-03-26T12:02:39.332Z,96956.03
2023-03-26T12:05:15.681Z,96957.13
2023-03-26T12:07:47.210Z,96952.31
2023-03-26T12:10:38.970Z,96959.63
2023-03-26T12:13:23.009Z,96958.38
2023-03-26T12:15:51.117Z,96950.13
2023-03-26T12:18:24.388Z,96956.19
2023-03-26T12:21:03.268Z,96944.69
2023-03-26T12:23:38.906Z,96944.84
2023-03-26T12:26:13.390Z,96945.59
2023-03-26T12:28:45.380Z,96946.53
2023-03-26T12:31:18.484Z,96925.38
2023-03-26T12:33:52.946Z,96935.19
2023-03-26T12:36:23.483Z,96933.78
2023-03-26T12:39:16.790Z,96933.63
2023-03-26T12:44:42.054Z,96931.31
2023-03-26T12:44:54.889Z,96937.22
2023-03-26T12:48:00.564Z,96927.72
2023-03-26T12:50:15.709Z,96916.34
2023-03-26T12:52:53.909Z,96928.63
2023-03-26T12:55:36.840Z,96923.81
2023-03-26T12:58:14.277Z,96928.97
2023-03-26T13:00:49.539Z,96932.84
2023-03-26T13:03:38.175Z,96925.53
2023-03-26T13:06:24.332Z,96925.38
2023-03-26T13:09:08.850Z,96925.84
2023-03-26T13:11:43.093Z,96929.91
2023-03-26T13:14:22.381Z,96925.06
2023-03-26T13:16:54.134Z,96933.00
2023-03-26T13:19:24.650Z,96928.66
2023-03-26T13:22:01.551Z,96929.88
2023-03-26T13:24:35.521Z,96934.41
2023-03-26T13:27:14.933Z,96937.50
2023-03-26T13:29:51.975Z,96934.41
2023-03-26T13:32:24.237Z,96925.81
2023-03-26T13:35:03.747Z,96924.44
2023-03-26T13:37:38.593Z,96928.78
2023-03-26T13:40:15.702Z,96918.81
2023-03-26T13:42:49.548Z,96915.38
2023-03-26T13:45:25.793Z,96912.88
2023-03-26T13:47:56.392Z,96918.03
2023-03-26T13:50:26.894Z,96916.31
2023-03-26T13:53:00.303Z,96909.31
2023-03-26T13:55:31.266Z,96912.56
2023-03-26T13:58:05.097Z,96906.47
2023-03-26T14:00:43.662Z,96917.84
2023-03-26T14:03:17.873Z,96911.94
2023-03-26T14:05:48.125Z,96919.69
2023-03-26T14:08:21.158Z,96912.41
2023-03-26T14:10:53.160Z,96915.50
2023-03-26T14:13:25.143Z,96918.00
2023-03-26T14:15:57.411Z,96915.81
2023-03-26T14:18:29.518Z,96917.69
2023-03-26T14:21:08.516Z,96927.94
2023-03-26T14:23:58.456Z,96919.56
2023-03-26T14:26:37.354Z,96923.88
2023-03-26T14:29:18.790Z,96915.97
2023-03-26T14:31:52.557Z,96928.88
2023-03-26T14:34:38.536Z,96916.91
2023-03-26T14:37:28.206Z,96914.25
2023-03-26T14:40:15.015Z,96913.66
2023-03-26T14:42:44.660Z,96911.00
2023-03-26T14:45:27.351Z,96923.88
2023-03-26T14:48:09.797Z,96917.19
2023-03-26T14:50:48.121Z,96916.75
2023-03-26T14:53:20.164Z,96920.00
2023-03-26T14:56:02.625Z,96917.34
2023-03-26T14:58:45.332Z,96915.03
2023-03-26T15:01:25.446Z,96920.75
2023-03-26T15:04:14.432Z,96911.91
2023-03-26T15:06:59.205Z,96904.75
2023-03-26T15:09:49.408Z,96900.38
2023-03-26T15:12:25.865Z,96904.13
2023-03-26T15:15:26.158Z,96912.06
2023-03-26T15:18:17.919Z,96900.09
2023-03-26T15:21:00.837Z,96900.38
2023-03-26T15:23:47.500Z,96901.00
2023-03-26T15:26:37.247Z,96906.91
2023-03-26T15:29:14.081Z,96900.22
2023-03-26T15:32:00.742Z,96894.78
2023-03-26T15:34:48.796Z,96899.25
2023-03-26T15:37:37.371Z,96903.59
2023-03-26T15:40:25.910Z,96908.09
2023-03-26T15:43:01.619Z,96902.50
2023-03-26T15:45:38.972Z,96904.69
2023-03-26T15:48:16.116Z,96903.31
2023-03-26T15:50:56.063Z,96900.94
2023-03-26T15:53:35.536Z,96905.94
2023-03-26T15:56:15.065Z,96917.00
2023-03-26T15:58:48.325Z,96912.63
2023-03-26T16:01:26.073Z,96909.66
2023-03-26T16:03:59.745Z,96921.44
2023-03-26T16:06:31.369Z,96909.03
2023-03-26T16:09:08.106Z,96917.25
2023-03-26T16:11:59.800Z,96910.28
2023-03-26T16:14:42.906Z,96913.53
2023-03-26T16:17:17.774Z,96915.41
2023-03-26T16:19:56.632Z,96911.69
2023-03-26T16:22:42.973Z,96918.81
2023-03-26T16:25:27.619Z,96920.72
2023-03-26T16:28:21.385Z,96916.16
2023-03-26T16:31:04.342Z,96919.13
2023-03-26T16:33:54.814Z,96921.44
2023-03-26T16:36:34.578Z,96919.00
2023-03-26T16:39:13.658Z,96914.31
2023-03-26T16:41:56.566Z,96918.69
2023-03-26T16:44:40.182Z,96921.00
2023-03-26T16:47:13.434Z,96924.72
2023-03-26T16:50:08.516Z,96929.56
2023-03-26T16:52:44.187Z,96914.78
2023-03-26T16:55:19.912Z,96924.53
2023-03-26T16:57:53.948Z,96927.06
2023-03-26T17:00:27.524Z,96934.66
2023-03-26T17:03:00.151Z,96939.06
2023-03-26T17:05:35.435Z,96927.56
2023-03-26T17:08:07.468Z,96930.22
2023-03-26T17:10:41.321Z,96928.94
2023-03-26T17:13:11.613Z,96928.78
2023-03-26T17:15:44.719Z,96927.53
2023-03-26T17:18:23.064Z,96934.06
2023-03-26T17:20:59.836Z,96934.97
2023-03-26T17:23:31.884Z,96937.03
2023-03-26T17:26:05.217Z,96924.28
2023-03-26T17:28:42.028Z,96931.72
2023-03-26T17:31:17.499Z,96931.25
2023-03-26T17:33:46.195Z,96931.25
2023-03-26T17:36:29.640Z,96928.91
2023-03-26T17:39:01.997Z,96927.38
2023-03-26T17:41:48.340Z,96930.00
2023-03-26T17:44:30.591Z,96921.16
2023-03-26T17:46:59.277Z,96926.53
2023-03-26T17:49:29.521Z,96926.25
2023-03-26T17:52:00.758Z,96919.09
2023-03-26T17:54:32.692Z,96919.84
2023-03-26T17:57:04.045Z,96913.94
2023-03-26T17:59:33.283Z,96924.38
2023-03-26T18:02:03.684Z,96920.97
2023-03-26T18:04:33.220Z,96915.00
2023-03-26T18:07:19.071Z,96922.28
2023-03-26T18:10:00.504Z,96916.88
2023-03-26T18:12:36.289Z,96918.13
2023-03-26T18:15:19.014Z,96928.66
2023-03-26T18:17:48.399Z,96922.78
2023-03-26T18:20:26.386Z,96918.56
2023-03-26T18:22:54.673Z,96917.66
2023-03-26T18:25:26.352Z,96919.84
2023-03-26T18:27:54.488Z,96920.28
2023-03-26T18:30:26.028Z,96909.56
2023-03-26T18:33:00.144Z,96912.53
2023-03-26T18:35:29.321Z,96914.56
2023-03-26T18:38:00.180Z,96913.00
2023-03-26T18:40:34.169Z,96913.34
2023-03-26T18:43:02.150Z,96903.38
2023-03-26T18:45:31.704Z,96903.31
2023-03-26T18:48:01.194Z,96904.00
2023-03-26T18:50:30.082Z,96894.97
2023-03-26T18:53:00.212Z,96913.13
2023-03-26T18:55:28.780Z,96905.38
2023-03-26T18:57:58.261Z,96915.78
2023-03-26T19:00:28.149Z,96912.38
2023-03-26T19:03:01.115Z,96914.72
2023-03-26T19:05:29.556Z,96921.72
2023-03-26T19:07:57.923Z,96922.78
2023-03-26T19:10:26.662Z,96918.75
2023-03-26T19:13:00.020Z,96924.38
2023-03-26T19:15:29.384Z,96913.66
2023-03-26T19:17:59.903Z,96908.69
2023-03-26T19:20:29.672Z,96914.28
2023-03-26T19:22:58.609Z,96911.31
2023-03-26T19:25:28.135Z,96910.84
2023-03-26T19:27:56.327Z,96909.47
2023-03-26T19:30:30.526Z,96903.88
2023-03-26T19:33:13.577Z,96900.75
2023-03-26T19:35:42.525Z,96900.06
2023-03-26T19:38:24.344Z,96899.47
2023-03-26T19:40:53.309Z,96905.81
2023-03-26T19:43:21.610Z,96909.09
2023-03-26T19:45:59.674Z,96916.75
2023-03-26T19:48:45.314Z,96905.41
2023-03-26T19:51:20.316Z,96915.19
2023-03-26T19:53:54.293Z,96918.59
2023-03-26T19:56:23.157Z,96916.38
2023-03-26T19:58:51.451Z,96914.00
2023-03-26T20:01:22.020Z,96917.47
2023-03-26T20:03:51.768Z,96925.19
2023-03-26T20:06:27.852Z,96925.50
2023-03-26T20:09:02.442Z,96913.41
2023-03-26T20:11:33.594Z,96927.78
2023-03-26T20:14:02.437Z,96925.34
2023-03-26T20:16:32.392Z,96921.13
2023-03-26T20:19:02.614Z,96931.94
2023-03-26T20:21:32.496Z,96924.53
2023-03-26T20:24:00.906Z,96935.06
2023-03-26T20:26:28.905Z,96930.38
2023-03-26T20:28:57.553Z,96933.97
2023-03-26T20:31:26.901Z,96934.88
2023-03-26T20:33:56.564Z,96935.16
2023-03-26T20:36:32.999Z,96944.13
2023-03-26T20:39:05.842Z,96935.03
2023-03-26T20:41:34.637Z,96941.31
2023-03-26T20:44:03.892Z,96946.47
2023-03-26T20:46:33.365Z,96949.78
2023-03-26T20:49:02.990Z,96940.53
2023-03-26T20:51:30.946Z,96954.94
2023-03-26T20:53:58.840Z,96948.81
2023-03-26T20:56:27.182Z,96949.19
2023-03-26T20:59:09.883Z,96943.75
2023-03-26T21:01:39.109Z,96949.00
2023-03-26T21:04:08.636Z,96947.03
2023-03-26T21:06:36.606Z,96945.28
2023-03-26T21:09:05.195Z,96949.78
2023-03-26T21:11:41.012Z,96953.06
2023-03-26T21:14:10.987Z,96960.50
2023-03-26T21:16:39.502Z,96954.25
2023-03-26T21:19:10.332Z,96940.56
2023-03-26T21:21:47.767Z,96958.50
2023-03-26T21:24:20.236Z,96963.00
2023-03-26T21:26:51.255Z,96952.59
2023-03-26T21:29:19.517Z,96960.56
2023-03-26T21:31:47.839Z,96962.44
2023-03-26T21:34:17.720Z,96961.69
2023-03-26T21:36:46.732Z,96960.31
2023-03-26T21:39:15.497Z,96966.53
2023-03-26T21:41:46.157Z,96975.03
2023-03-26T21:44:15.496Z,96972.75
2023-03-26T21:46:44.189Z,96968.75
2023-03-26T21:49:12.922Z,96968.03
2023-03-26T21:51:42.847Z,96978.03
2023-03-26T21:54:18.849Z,96982.13
2023-03-26T21:56:50.025Z,96982.53
2023-03-26T21:59:23.765Z,96992.06
2023-03-26T22:01:55.841Z,96990.63
2023-03-26T22:04:29.926Z,96999.25
2023-03-26T22:07:02.342Z,96990.41
2023-03-26T22:09:36.308Z,96995.16
2023-03-26T22:12:05.082Z,96995.34
2023-03-26T22:14:33.853Z,96994.66
2023-03-26T22:17:01.849Z,97000.25
2023-03-26T22:19:30.581Z,97001.63
2023-03-26T22:22:00.287Z,96995.72
2023-03-26T22:24:28.707Z,97000.22
2023-03-26T22:26:57.327Z,96996.03
2023-03-26T22:29:26.236Z,97006.22
2023-03-26T22:31:54.420Z,97002.50
2023-03-26T22:34:23.251Z,96995.16
2023-03-26T22:36:52.631Z,97005.56
2023-03-26T22:39:22.186Z,97007.63
2023-03-26T22:41:50.209Z,97006.56
2023-03-26T22:44:20.299Z,97012.25
2023-03-26T22:46:51.827Z,97007.56
2023-03-26T22:49:20.017Z,97015.03
2023-03-26T22:51:48.161Z,97008.72
2023-03-26T22:54:16.215Z,97005.16
2023-03-26T22:56:45.995Z,97012.78
2023-03-26T22:59:14.677Z,97001.91
2023-03-26T23:01:44.276Z,97000.81
2023-03-26T23:04:13.111Z,97001.41
2023-03-26T23:06:59.979Z,97002.28
2023-03-26T23:09:30.366Z,97010.16
2023-03-26T23:11:59.918Z,97014.44
2023-03-26T23:14:28.735Z,97013.53
2023-03-26T23:16:57.345Z,97016.44
2023-03-26T23:19:25.716Z,97009.81
2023-03-26T23:21:53.830Z,97009.81
2023-03-26T23:24:21.904Z,97020.56
2023-03-26T23:26:51.298Z,96996.75
2023-03-26T23:29:21.290Z,97004.00
2023-03-26T23:31:49.448Z,97006.72
2023-03-26T23:34:20.865Z,97016.03
2023-03-26T23:36:49.657Z,97020.53
2023-03-26T23:39:17.803Z,97021.28
2023-03-26T23:41:46.252Z,97003.69
2023-03-26T23:44:16.061Z,97022.31
2023-03-26T23:46:45.459Z,97019.53
2023-03-26T23:49:13.813Z,97005.53
2023-03-26T23:51:45.035Z,97001.31
2023-03-26T23:54:13.085Z,97014.81
2023-03-26T23:56:41.133Z,97016.38
2023-03-26T23:59:09.248Z,97010.47
